首页
METAR-TAF:

METAR-TAF

机场 :

香港, 中华人民共和国

香港國際機場

纬度: 22-19N, 经度: 113-55E, 海拔: 9米

当前天气观测

该预报发布于22分钟前的03:00 UTC
风速15节,风向
温度 21°C
湿度 64%
气压 1018 hPa
能见度10公里或以上
少量云层高于2800英尺
散云层高于4000英尺

METAR: VHHH 200300Z 10015KT 9999 FEW028 SCT040 21/14 Q1018 NOSIG

时间: 11:22 (03:22 UTC)

预报

该预报发布于4小时和22分钟前的23:00 UTC
预报有效从20日的 00点(UTC)到 21日的 06点(UTC)
风速10节,风向东转东北
能見度: 7000
少量云层高于2000英尺
散云层高于3500英尺
短暂存在
从 20日的 00点(UTC)到 20日的 03点(UTC)
风速5节,风向多变
能見度: 3000
轻雾
短暂存在
从 20日的 03点(UTC)到 20日的 09点(UTC)
风速10节,风向西转西北
能見度: 4000
短暂存在
从 20日的 09点(UTC)到 20日的 15点(UTC)
风速5节,风向多变

TAF: VHHH 192300Z 2000/2106 07010KT 7000 FEW020 SCT035 TX22/2007Z TX22/2106Z TN18/2023Z TEMPO 2000/2003 VRB05KT 3000 BR TEMPO 2003/2009 30010KT 4000 HZ TEMPO 2009/2015 VRB05KT

超过4000个机场的气象观测和天气预报(METAR&TAF报告)。

可查询的气象台以黄色和红色小点在地图上表示。

将鼠标移到小点上方,可查看气象台名称。

然后点击查看天气观测和预报。

如需切换地图:点击带黑十字的绿色按钮放大地图;点击带横线的绿色按钮缩小地图;或者点击绿色箭头查看邻近地区的地图。


METAR-TAF: